Time;durP1;ratioP1;P1;durP2;ratioP2;P2;SDS_P1;SDS_P2;PMS_P1;PMS_P2;Temp;Humidity;BMP_temperature;BMP_pressure;BME280_temperature;BME280_humidity;BME280_pressure;Samples;Min_cycle;Max_cycle;Signal;HPM_P1;HPM_P2
2023/06/08 00:01:52;;;;;;;4.90;4.40;;;26.10;40.90;;;;;;5018297;28;20305;-48
2023/06/08 00:04:18;;;;;;;3.77;3.47;;;26.00;41.20;;;;;;5030792;28;20501;-48
2023/06/08 00:06:44;;;;;;;3.93;3.63;;;25.90;41.40;;;;;;5032166;28;20447;-50
2023/06/08 00:09:10;;;;;;;3.40;3.17;;;25.90;41.70;;;;;;5019697;28;20194;-48
2023/06/08 00:11:36;;;;;;;3.80;3.50;;;25.90;41.50;;;;;;5035976;28;20790;-48
2023/06/08 00:14:02;;;;;;;3.30;3.10;;;25.90;41.50;;;;;;5033882;28;20189;-48
2023/06/08 00:16:28;;;;;;;3.43;3.13;;;25.90;41.50;;;;;;5029871;28;20447;-48
2023/06/08 00:18:56;;;;;;;5.70;3.37;;;25.90;41.50;;;;;;5025390;28;20797;-51
2023/06/08 00:21:26;;;;;;;3.57;3.27;;;25.90;41.60;;;;;;5020898;28;20515;-48
2023/06/08 00:23:52;;;;;;;3.30;3.00;;;25.80;41.70;;;;;;5019261;28;20447;-48
2023/06/08 00:26:17;;;;;;;3.47;3.27;;;25.80;41.80;;;;;;5026244;28;20527;-48
2023/06/08 00:28:46;;;;;;;6.10;3.60;;;25.80;42.00;;;;;;5031808;28;20542;-48
2023/06/08 00:31:12;;;;;;;4.00;3.70;;;25.90;41.80;;;;;;5023207;28;20194;-49
2023/06/08 00:33:37;;;;;;;3.53;2.93;;;25.90;41.60;;;;;;5025485;28;20498;-48
2023/06/08 00:36:04;;;;;;;3.83;3.53;;;25.90;41.70;;;;;;5001996;28;20201;-48
2023/06/08 00:38:30;;;;;;;3.57;3.37;;;25.90;41.70;;;;;;5013900;28;20248;-49
2023/06/08 00:40:55;;;;;;;3.63;3.33;;;25.80;41.90;;;;;;5023269;28;20440;-49
2023/06/08 00:43:21;;;;;;;3.47;3.17;;;25.80;42.00;;;;;;5026601;28;20642;-49
2023/06/08 00:45:47;;;;;;;3.30;3.00;;;25.70;42.10;;;;;;5025064;28;20205;-48
2023/06/08 00:48:13;;;;;;;3.37;3.17;;;25.60;42.20;;;;;;5024970;28;20649;-49
2023/06/08 00:50:39;;;;;;;3.67;3.37;;;25.60;42.20;;;;;;5022700;28;20545;-49
2023/06/08 00:53:04;;;;;;;4.20;3.80;;;25.60;42.20;;;;;;5019650;28;20462;-49
2023/06/08 00:55:33;;;;;;;3.50;3.30;;;25.70;42.20;;;;;;5018112;28;20244;-49
2023/06/08 00:58:00;;;;;;;6.87;3.80;;;25.60;42.10;;;;;;5018285;28;20194;-49
2023/06/08 01:00:27;;;;;;;3.57;3.27;;;25.60;42.30;;;;;;5018636;28;20978;-48
2023/06/08 01:02:53;;;;;;;4.30;3.50;;;25.60;42.30;;;;;;5025170;28;20879;-49
2023/06/08 01:05:19;;;;;;;3.93;3.63;;;25.60;42.30;;;;;;5019179;28;20439;-49
2023/06/08 01:08:20;;;;;;;3.47;3.13;;;25.60;42.40;;;;;;5024932;28;21117;-49
2023/06/08 01:11:03;;;;;;;4.50;3.40;;;25.50;42.50;;;;;;5016047;28;21014;-48
2023/06/08 01:13:53;;;;;;;3.97;3.67;;;25.50;42.50;;;;;;5023036;28;20950;-46
2023/06/08 01:16:22;;;;;;;3.73;3.43;;;25.40;42.70;;;;;;5022561;28;20471;-47
2023/06/08 01:18:51;;;;;;;4.80;3.90;;;25.30;42.90;;;;;;5017200;28;20471;-47
2023/06/08 01:21:51;;;;;;;3.80;3.10;;;25.40;42.80;;;;;;5021828;28;20474;-47
2023/06/08 01:24:20;;;;;;;3.00;2.80;;;25.50;42.80;;;;;;5027043;28;20452;-47
2023/06/08 01:26:49;;;;;;;4.37;4.07;;;25.40;42.80;;;;;;5017992;28;21296;-47
2023/06/08 01:29:16;;;;;;;3.60;3.30;;;25.40;42.80;;;;;;5021760;28;20451;-47
2023/06/08 01:31:43;;;;;;;3.90;3.10;;;25.20;43.10;;;;;;5030099;28;20523;-46
2023/06/08 01:34:11;;;;;;;4.03;3.73;;;25.10;43.30;;;;;;5033499;28;20923;-47
2023/06/08 01:36:57;;;;;;;3.40;3.10;;;25.20;43.30;;;;;;5032837;28;20480;-49
2023/06/08 01:39:40;;;;;;;3.67;3.40;;;25.20;43.20;;;;;;5017794;28;20492;-50
2023/06/08 01:42:09;;;;;;;5.90;3.57;;;25.20;43.20;;;;;;5015847;28;20463;-47
2023/06/08 01:44:40;;;;;;;3.80;3.50;;;25.20;43.80;;;;;;5024839;28;20455;-47
2023/06/08 01:47:07;;;;;;;3.33;3.13;;;25.20;43.30;;;;;;5021298;28;20979;-48
2023/06/08 01:49:33;;;;;;;3.30;3.10;;;25.20;43.20;;;;;;5019679;28;20482;-49
2023/06/08 01:51:58;;;;;;;4.17;3.77;;;25.20;43.30;;;;;;5018736;28;20451;-50
2023/06/08 01:54:24;;;;;;;3.83;3.53;;;25.20;43.10;;;;;;5014267;28;20260;-47
2023/06/08 01:56:50;;;;;;;3.67;3.37;;;25.10;43.30;;;;;;5025328;28;20240;-47
2023/06/08 01:59:16;;;;;;;3.43;3.20;;;25.00;43.40;;;;;;5023121;28;20245;-48
2023/06/08 02:01:41;;;;;;;3.77;3.50;;;25.10;43.40;;;;;;5026293;28;20194;-50
2023/06/08 02:04:07;;;;;;;3.60;3.40;;;25.10;43.50;;;;;;5021431;28;20957;-47
2023/06/08 02:06:32;;;;;;;3.80;3.50;;;25.10;43.50;;;;;;5028055;28;20189;-47
2023/06/08 02:08:58;;;;;;;3.90;3.60;;;25.10;43.40;;;;;;5022924;28;20289;-48
2023/06/08 02:11:25;;;;;;;4.20;3.80;;;25.00;43.40;;;;;;5021199;28;20552;-47
2023/06/08 02:13:51;;;;;;;3.97;3.67;;;25.00;43.50;;;;;;5019392;28;20447;-48
2023/06/08 02:16:18;;;;;;;3.37;3.17;;;24.90;43.60;;;;;;5012972;28;20449;-47
2023/06/08 02:18:45;;;;;;;3.93;3.63;;;25.00;43.60;;;;;;5019894;28;20197;-48
2023/06/08 02:21:11;;;;;;;3.63;3.43;;;25.00;43.60;;;;;;5022839;28;20511;-52
2023/06/08 02:23:38;;;;;;;3.70;3.40;;;24.90;43.70;;;;;;5017884;28;20443;-50
2023/06/08 02:26:06;;;;;;;4.07;3.77;;;24.90;43.70;;;;;;5016643;28;20441;-47
2023/06/08 02:28:32;;;;;;;3.57;3.27;;;24.80;43.80;;;;;;5019857;28;20440;-48
2023/06/08 02:30:58;;;;;;;4.47;3.87;;;24.80;43.80;;;;;;5020086;28;20520;-48
2023/06/08 02:33:24;;;;;;;3.27;3.07;;;24.70;44.30;;;;;;5025493;28;20939;-48
2023/06/08 02:35:49;;;;;;;3.50;3.20;;;24.60;44.20;;;;;;5021211;28;20228;-48
2023/06/08 02:38:16;;;;;;;3.80;3.60;;;24.70;44.10;;;;;;5024936;28;20264;-47
2023/06/08 02:40:41;;;;;;;4.70;4.20;;;24.70;43.90;;;;;;5018185;28;20225;-49
2023/06/08 02:43:08;;;;;;;4.40;4.00;;;24.80;43.80;;;;;;5025518;28;20450;-47
2023/06/08 02:45:34;;;;;;;4.23;3.73;;;24.90;43.60;;;;;;5023383;28;20566;-47
2023/06/08 02:48:00;;;;;;;4.37;4.07;;;24.80;43.60;;;;;;5020088;28;20448;-49
2023/06/08 02:50:26;;;;;;;4.03;3.73;;;24.70;43.60;;;;;;5024523;28;20466;-51
2023/06/08 02:52:51;;;;;;;10.20;4.40;;;24.50;44.00;;;;;;5021284;28;20225;-48
2023/06/08 02:55:17;;;;;;;4.10;3.80;;;24.30;44.30;;;;;;5020504;28;20249;-47
2023/06/08 02:57:42;;;;;;;4.50;4.10;;;24.20;44.60;;;;;;5025605;28;20718;-47
2023/06/08 03:00:09;;;;;;;5.10;4.20;;;23.90;45.10;;;;;;5019720;28;20268;-48
2023/06/08 03:02:35;;;;;;;4.23;3.93;;;23.90;45.20;;;;;;5019205;28;20208;-47
2023/06/08 03:05:03;;;;;;;4.77;4.33;;;23.80;45.30;;;;;;5016765;28;20436;-50
2023/06/08 03:07:36;;;;;;;5.63;5.23;;;23.80;45.40;;;;;;5015848;28;20535;-47
2023/06/08 03:10:03;;;;;;;9.73;5.20;;;23.70;45.40;;;;;;5028256;28;20476;-48
2023/06/08 03:12:30;;;;;;;6.50;4.20;;;23.60;45.90;;;;;;5016333;28;20443;-49
2023/06/08 03:14:55;;;;;;;4.93;4.47;;;23.40;46.40;;;;;;5020875;28;20438;-47
2023/06/08 03:17:24;;;;;;;4.17;3.87;;;23.30;46.50;;;;;;5026301;28;20444;-51
2023/06/08 03:19:50;;;;;;;5.53;5.10;;;23.00;47.90;;;;;;5012749;28;20253;-47
2023/06/08 03:22:15;;;;;;;4.40;4.10;;;23.00;47.20;;;;;;5025054;28;20490;-47
2023/06/08 03:24:42;;;;;;;4.73;4.33;;;23.10;47.10;;;;;;5014022;28;20433;-52
2023/06/08 03:27:08;;;;;;;4.90;4.40;;;23.00;47.30;;;;;;5013354;28;20190;-46
2023/06/08 03:29:33;;;;;;;5.40;5.00;;;22.70;47.50;;;;;;5014991;28;20473;-47
2023/06/08 03:32:00;;;;;;;4.30;3.97;;;22.50;48.30;;;;;;5027782;28;20254;-47
2023/06/08 03:34:26;;;;;;;4.53;4.13;;;22.50;48.50;;;;;;5016904;28;20711;-48
2023/06/08 03:36:53;;;;;;;4.77;4.43;;;22.60;48.00;;;;;;5024705;28;20530;-48
2023/06/08 03:39:18;;;;;;;4.10;3.80;;;22.80;47.90;;;;;;5026391;28;20567;-50
2023/06/08 03:41:44;;;;;;;4.43;4.13;;;22.80;47.50;;;;;;5031653;28;20436;-47
2023/06/08 03:44:10;;;;;;;4.20;3.90;;;22.80;47.60;;;;;;5028032;28;20565;-49
2023/06/08 03:46:35;;;;;;;4.63;4.33;;;22.80;47.60;;;;;;5028058;28;20480;-50
2023/06/08 03:49:01;;;;;;;5.30;4.90;;;22.90;47.30;;;;;;5022185;28;20200;-47
2023/06/08 03:51:27;;;;;;;4.83;4.13;;;22.90;47.20;;;;;;5027059;28;20206;-48
2023/06/08 03:53:52;;;;;;;4.00;3.70;;;23.00;47.30;;;;;;5023708;28;20232;-47
2023/06/08 03:56:18;;;;;;;4.83;4.43;;;23.00;47.30;;;;;;5023375;28;20241;-47
2023/06/08 03:58:44;;;;;;;4.30;4.00;;;23.00;47.10;;;;;;5028148;28;20635;-50
2023/06/08 04:01:11;;;;;;;4.50;4.20;;;23.00;47.00;;;;;;5032412;28;20191;-47
2023/06/08 04:03:38;;;;;;;4.87;4.47;;;23.00;47.10;;;;;;5026903;28;20476;-47
2023/06/08 04:06:11;;;;;;;5.00;4.70;;;22.90;47.20;;;;;;5014726;28;20953;-48
2023/06/08 04:08:39;;;;;;;5.40;4.50;;;22.90;47.40;;;;;;5019652;28;20816;-48
2023/06/08 04:11:07;;;;;;;4.60;4.23;;;23.00;47.40;;;;;;5022012;28;20451;-48
2023/06/08 04:13:34;;;;;;;4.27;3.87;;;22.90;47.30;;;;;;5027588;28;20445;-47
2023/06/08 04:16:00;;;;;;;5.23;4.87;;;22.80;47.50;;;;;;5026230;28;20538;-48
2023/06/08 04:18:26;;;;;;;4.40;4.10;;;22.90;47.60;;;;;;5028147;28;21046;-48
2023/06/08 04:20:51;;;;;;;5.40;4.77;;;22.90;47.60;;;;;;5022695;28;20228;-48
2023/06/08 04:23:17;;;;;;;4.80;4.40;;;22.90;47.60;;;;;;5018511;28;20196;-53
2023/06/08 04:25:43;;;;;;;4.50;4.20;;;22.90;47.60;;;;;;5027870;28;20675;-48
2023/06/08 04:28:08;;;;;;;5.00;4.30;;;22.90;47.80;;;;;;5023220;28;20200;-47
2023/06/08 04:30:34;;;;;;;5.20;4.80;;;22.90;47.70;;;;;;5021827;28;20198;-48
2023/06/08 04:33:00;;;;;;;5.10;4.70;;;23.00;47.40;;;;;;5019009;28;20681;-47
2023/06/08 04:35:26;;;;;;;5.00;4.50;;;23.10;47.50;;;;;;5026157;28;20197;-50
2023/06/08 04:37:52;;;;;;;4.80;4.50;;;23.00;47.50;;;;;;5027026;28;20459;-49
2023/06/08 04:40:19;;;;;;;5.50;5.10;;;22.80;47.90;;;;;;5020670;28;20891;-48
2023/06/08 04:42:45;;;;;;;6.17;5.57;;;22.50;48.40;;;;;;5025134;28;20202;-49
2023/06/08 04:45:12;;;;;;;4.93;4.53;;;22.40;48.60;;;;;;5030308;28;20519;-47
2023/06/08 04:47:40;;;;;;;5.43;5.03;;;22.30;49.00;;;;;;5021450;28;20280;-47
2023/06/08 04:50:09;;;;;;;4.90;4.50;;;22.00;49.30;;;;;;5028698;28;20459;-50
2023/06/08 04:52:40;;;;;;;5.27;4.87;;;21.90;49.90;;;;;;5027723;28;20459;-46
2023/06/08 04:55:13;;;;;;;5.47;5.07;;;22.00;49.70;;;;;;5019977;28;20483;-48
2023/06/08 04:57:40;;;;;;;6.13;4.73;;;22.30;49.20;;;;;;5031179;28;20481;-48
2023/06/08 05:00:08;;;;;;;4.70;4.33;;;22.50;49.00;;;;;;5029705;28;20542;-52
2023/06/08 05:02:34;;;;;;;4.33;4.03;;;22.50;48.70;;;;;;5031230;28;20475;-52
2023/06/08 05:05:00;;;;;;;4.63;4.23;;;22.50;49.00;;;;;;5025317;28;20460;-50
2023/06/08 05:07:26;;;;;;;5.20;4.70;;;22.50;48.90;;;;;;5026008;28;20574;-50
2023/06/08 05:09:51;;;;;;;6.00;4.40;;;22.50;48.90;;;;;;5023667;28;20451;-51
2023/06/08 05:12:17;;;;;;;5.10;4.57;;;22.80;48.70;;;;;;5013423;28;20327;-50
2023/06/08 05:14:42;;;;;;;5.57;5.03;;;22.90;48.40;;;;;;5023612;28;20221;-51
2023/06/08 05:17:08;;;;;;;8.03;5.40;;;23.00;48.00;;;;;;5023803;28;20194;-48
2023/06/08 05:19:34;;;;;;;8.43;4.83;;;23.10;47.60;;;;;;5030004;28;20260;-51
2023/06/08 05:22:00;;;;;;;5.00;4.70;;;23.20;47.60;;;;;;5033947;28;20561;-57
2023/06/08 05:24:25;;;;;;;4.80;4.40;;;23.30;47.30;;;;;;5025775;28;20201;-47
2023/06/08 05:26:51;;;;;;;4.93;4.40;;;23.30;47.40;;;;;;5018321;28;20197;-47
2023/06/08 05:29:16;;;;;;;4.20;3.90;;;23.20;47.70;;;;;;5019865;28;20653;-51
2023/06/08 05:31:42;;;;;;;5.70;5.30;;;23.20;47.70;;;;;;5026297;28;20193;-48
2023/06/08 05:34:07;;;;;;;4.60;4.23;;;23.30;47.50;;;;;;5026213;28;20205;-47
2023/06/08 05:36:33;;;;;;;5.53;5.03;;;23.30;47.40;;;;;;5024810;28;20189;-48
2023/06/08 05:39:03;;;;;;;7.90;5.70;;;23.40;47.10;;;;;;5011661;28;20213;-50
2023/06/08 05:41:29;;;;;;;5.10;4.60;;;23.50;47.00;;;;;;5021555;28;20196;-49
2023/06/08 05:43:54;;;;;;;10.03;5.20;;;23.40;47.10;;;;;;5028564;28;20432;-50
2023/06/08 05:46:20;;;;;;;5.57;4.60;;;23.40;47.90;;;;;;5018163;28;20197;-48
2023/06/08 05:48:46;;;;;;;5.80;5.13;;;23.60;47.20;;;;;;5027975;28;20194;-49
2023/06/08 05:51:11;;;;;;;5.80;5.30;;;23.80;46.50;;;;;;5024315;28;20342;-49
2023/06/08 05:53:38;;;;;;;5.03;4.63;;;24.00;46.10;;;;;;5020011;28;20193;-50
2023/06/08 05:56:04;;;;;;;5.30;4.80;;;24.00;45.90;;;;;;5012446;28;20240;-49
2023/06/08 05:58:30;;;;;;;7.60;4.60;;;24.20;45.70;;;;;;5024205;28;20443;-53
2023/06/08 06:00:58;;;;;;;5.80;5.40;;;24.30;45.70;;;;;;5016651;28;21136;-49
2023/06/08 06:03:24;;;;;;;6.30;5.70;;;24.30;45.50;;;;;;5013125;28;20190;-50
2023/06/08 06:05:50;;;;;;;7.03;4.83;;;24.30;45.70;;;;;;5028299;28;20766;-49
2023/06/08 06:08:15;;;;;;;5.50;5.10;;;24.30;45.70;;;;;;5018825;28;20536;-49
2023/06/08 06:10:41;;;;;;;6.10;5.60;;;24.20;46.10;;;;;;5027951;28;20671;-49
2023/06/08 06:13:06;;;;;;;6.20;5.70;;;24.10;46.30;;;;;;5025117;28;20189;-50
2023/06/08 06:15:32;;;;;;;5.87;5.33;;;24.10;46.40;;;;;;5025437;28;20186;-49
2023/06/08 06:17:59;;;;;;;7.60;5.70;;;24.00;46.30;;;;;;5025781;28;20193;-49
2023/06/08 06:20:27;;;;;;;5.73;5.30;;;24.10;46.30;;;;;;5030611;28;20237;-51
2023/06/08 06:22:53;;;;;;;4.80;4.40;;;23.90;47.10;;;;;;5031989;28;20452;-49
2023/06/08 06:25:18;;;;;;;5.27;4.87;;;23.90;46.90;;;;;;5028003;28;20444;-49
2023/06/08 06:27:44;;;;;;;5.63;4.67;;;24.00;46.60;;;;;;5027954;28;20212;-52
2023/06/08 06:30:10;;;;;;;5.47;5.07;;;24.10;46.40;;;;;;5038217;28;20275;-52
2023/06/08 06:32:36;;;;;;;4.97;4.57;;;24.40;46.20;;;;;;5026686;28;20197;-46
2023/06/08 06:35:02;;;;;;;5.10;4.60;;;24.50;46.00;;;;;;5028590;28;20482;-49
2023/06/08 06:37:34;;;;;;;5.90;5.40;;;24.60;45.30;;;;;;5027277;28;20193;-47
2023/06/08 06:40:01;;;;;;;5.43;4.93;;;24.60;45.50;;;;;;5031361;28;20692;-50
2023/06/08 06:42:27;;;;;;;5.10;4.70;;;24.30;45.50;;;;;;5018962;28;20456;-51
2023/06/08 06:44:52;;;;;;;5.20;4.70;;;24.30;45.50;;;;;;5022774;28;20456;-50
2023/06/08 06:47:18;;;;;;;5.33;4.93;;;24.50;46.00;;;;;;5027408;28;20189;-49
2023/06/08 06:49:43;;;;;;;6.70;5.30;;;24.60;45.30;;;;;;5025339;28;20995;-49
2023/06/08 06:52:09;;;;;;;5.47;5.07;;;24.80;45.40;;;;;;5019209;28;20649;-48
2023/06/08 06:54:34;;;;;;;5.10;4.70;;;24.60;45.20;;;;;;5019651;28;20189;-48
2023/06/08 06:57:00;;;;;;;4.60;4.30;;;24.50;45.30;;;;;;5022670;28;20205;-51
2023/06/08 06:59:28;;;;;;;6.43;5.10;;;24.40;45.90;;;;;;5023098;28;20233;-48
2023/06/08 07:01:53;;;;;;;5.07;4.67;;;24.50;45.80;;;;;;5017409;28;20220;-51
2023/06/08 07:04:19;;;;;;;5.30;4.80;;;24.80;45.90;;;;;;5029126;28;20440;-47
2023/06/08 07:06:47;;;;;;;5.07;4.57;;;25.10;45.40;;;;;;5024415;28;20244;-47
2023/06/08 07:09:13;;;;;;;5.13;4.53;;;25.40;45.10;;;;;;5029235;28;20205;-50
2023/06/08 07:11:39;;;;;;;5.60;5.10;;;25.50;44.60;;;;;;5026561;28;20970;-49
2023/06/08 07:14:05;;;;;;;5.27;4.90;;;25.80;44.10;;;;;;5029226;28;20263;-49
2023/06/08 07:16:30;;;;;;;6.93;4.33;;;25.90;43.60;;;;;;5032692;28;20232;-49
2023/06/08 07:18:56;;;;;;;6.67;6.07;;;26.10;43.50;;;;;;5039303;28;20188;-50
2023/06/08 07:21:23;;;;;;;5.93;5.43;;;26.20;42.60;;;;;;5038737;28;20201;-50
2023/06/08 07:23:50;;;;;;;6.10;5.60;;;26.00;42.70;;;;;;5034172;28;20204;-49
2023/06/08 07:26:15;;;;;;;4.53;4.13;;;25.80;43.10;;;;;;5035049;28;20454;-49
2023/06/08 07:28:41;;;;;;;4.80;4.40;;;25.90;42.30;;;;;;5032089;28;20441;-48
2023/06/08 07:31:07;;;;;;;4.13;3.83;;;26.10;42.30;;;;;;5035877;28;20193;-48
2023/06/08 07:33:32;;;;;;;5.07;4.67;;;26.40;41.60;;;;;;5034141;28;20193;-49
2023/06/08 07:35:58;;;;;;;4.53;4.23;;;26.60;41.00;;;;;;5031588;28;20641;-49
2023/06/08 07:38:23;;;;;;;4.30;4.00;;;26.80;40.50;;;;;;5034305;28;20205;-48
2023/06/08 07:40:49;;;;;;;5.77;4.13;;;27.10;40.60;;;;;;5033384;28;20323;-49
2023/06/08 07:43:15;;;;;;;4.60;4.00;;;27.40;40.00;;;;;;5032519;28;20200;-49
2023/06/08 07:45:40;;;;;;;4.27;3.97;;;27.70;40.10;;;;;;5034443;28;20612;-47
2023/06/08 07:48:06;;;;;;;4.50;4.20;;;27.80;39.70;;;;;;5032166;28;20208;-47
2023/06/08 07:50:31;;;;;;;4.63;4.23;;;27.70;39.90;;;;;;5032732;28;20197;-50
2023/06/08 07:52:57;;;;;;;5.30;4.90;;;27.70;39.70;;;;;;5030388;28;20226;-49
2023/06/08 07:55:22;;;;;;;4.30;3.80;;;28.00;39.80;;;;;;5031895;28;20260;-49
2023/06/08 07:57:48;;;;;;;4.60;4.17;;;28.20;38.40;;;;;;5034168;28;20185;-50
2023/06/08 08:02:54;;;;;;;6.37;4.10;;;28.50;37.90;;;;;;5042092;22;20241;-48
2023/06/08 08:05:20;;;;;;;5.30;4.53;;;28.70;37.50;;;;;;5009760;28;20488;-47
2023/06/08 08:07:45;;;;;;;4.70;4.30;;;29.00;37.50;;;;;;5008354;28;20195;-52
2023/06/08 08:10:11;;;;;;;5.30;4.90;;;29.20;37.60;;;;;;5006444;28;20190;-48
2023/06/08 08:12:37;;;;;;;5.07;4.67;;;29.40;37.60;;;;;;5008266;28;20207;-48
2023/06/08 08:15:03;;;;;;;4.77;4.40;;;29.60;37.90;;;;;;5009679;28;20194;-47
2023/06/08 08:17:29;;;;;;;5.67;4.80;;;29.80;37.60;;;;;;5012285;28;20440;-48
2023/06/08 08:19:55;;;;;;;5.07;4.43;;;29.90;37.00;;;;;;5009599;28;20496;-51
2023/06/08 08:22:21;;;;;;;4.70;4.30;;;30.00;37.00;;;;;;5003739;28;20198;-50
2023/06/08 08:24:47;;;;;;;4.90;4.50;;;30.10;37.30;;;;;;5007510;28;20445;-51
2023/06/08 08:27:13;;;;;;;5.37;4.87;;;30.20;36.90;;;;;;5010202;28;20475;-48
2023/06/08 08:29:39;;;;;;;4.90;4.60;;;30.40;36.80;;;;;;5012086;28;20229;-50
2023/06/08 08:32:06;;;;;;;5.33;4.93;;;30.60;36.00;;;;;;5004787;28;20193;-48
2023/06/08 08:34:31;;;;;;;5.40;5.00;;;30.50;35.10;;;;;;5006275;28;20459;-45
2023/06/08 08:36:57;;;;;;;5.73;4.90;;;30.50;34.90;;;;;;5011213;28;20441;-47
2023/06/08 08:39:22;;;;;;;5.50;4.97;;;30.40;34.80;;;;;;5013251;28;20624;-46
2023/06/08 08:41:54;;;;;;;4.83;4.53;;;30.50;34.40;;;;;;5010657;28;20190;-49
2023/06/08 08:44:21;;;;;;;4.83;4.43;;;30.50;34.90;;;;;;5004610;28;20206;-50
2023/06/08 08:46:49;;;;;;;5.00;4.60;;;30.70;35.60;;;;;;5009399;28;20506;-52
2023/06/08 08:49:16;;;;;;;4.30;4.03;;;30.90;35.60;;;;;;5005564;28;20481;-50
2023/06/08 08:51:52;;;;;;;5.40;4.90;;;31.00;34.70;;;;;;5008314;28;20775;-52
2023/06/08 08:54:25;;;;;;;5.73;5.20;;;31.20;34.10;;;;;;5012856;28;20448;-49
2023/06/08 08:56:55;;;;;;;6.20;4.83;;;31.40;34.90;;;;;;5012864;28;20433;-49
2023/06/08 08:59:23;;;;;;;4.43;4.03;;;31.60;35.20;;;;;;5008909;28;20495;-51
2023/06/08 09:01:48;;;;;;;4.60;4.30;;;31.70;35.50;;;;;;5010201;28;20830;-52
2023/06/08 09:04:14;;;;;;;4.73;4.43;;;31.90;33.90;;;;;;5010918;28;20437;-48
2023/06/08 09:06:47;;;;;;;4.93;4.53;;;31.90;33.30;;;;;;5012132;28;20205;-49
2023/06/08 09:09:12;;;;;;;7.70;5.53;;;32.10;33.80;;;;;;5012866;28;20643;-51
2023/06/08 09:12:01;;;;;;;5.50;5.00;;;32.20;33.20;;;;;;5006783;28;20479;-51
2023/06/08 09:14:28;;;;;;;5.20;4.80;;;32.20;32.70;;;;;;5006107;28;20229;-49
2023/06/08 09:16:55;;;;;;;5.77;5.17;;;32.20;33.10;;;;;;4994106;28;20436;-50
2023/06/08 09:19:22;;;;;;;5.27;4.97;;;32.10;33.30;;;;;;5006722;28;20488;-48
2023/06/08 09:21:48;;;;;;;5.60;5.10;;;32.10;33.20;;;;;;5010833;28;20808;-48
2023/06/08 09:24:19;;;;;;;5.90;5.50;;;32.00;33.60;;;;;;5010400;28;20429;-46
2023/06/08 09:26:56;;;;;;;6.33;5.83;;;32.10;33.50;;;;;;5013344;28;20205;-48
2023/06/08 09:29:37;;;;;;;5.80;5.40;;;32.10;33.40;;;;;;5009739;28;20897;-45
2023/06/08 09:32:04;;;;;;;6.40;6.00;;;32.20;33.20;;;;;;5012086;28;20483;-45
2023/06/08 09:34:33;;;;;;;6.10;5.60;;;32.30;33.40;;;;;;5010645;28;20441;-48
2023/06/08 09:37:10;;;;;;;6.03;5.53;;;32.40;32.70;;;;;;5010465;28;20452;-50
2023/06/08 09:39:44;;;;;;;6.73;6.23;;;32.30;32.80;;;;;;5012999;28;20496;-48
2023/06/08 09:42:10;;;;;;;6.07;5.50;;;32.50;33.30;;;;;;5010235;28;20444;-46
2023/06/08 09:44:37;;;;;;;6.30;5.70;;;32.40;32.40;;;;;;5006647;28;20531;-46
2023/06/08 09:47:19;;;;;;;5.73;5.20;;;32.40;32.40;;;;;;5010622;28;20459;-46
2023/06/08 09:49:45;;;;;;;5.70;5.30;;;32.50;32.80;;;;;;5008029;28;20491;-51
2023/06/08 09:52:11;;;;;;;6.00;5.60;;;32.70;32.60;;;;;;5002616;28;20433;-49
2023/06/08 09:54:40;;;;;;;5.53;5.20;;;32.70;32.10;;;;;;5005726;28;20321;-47
2023/06/08 09:57:06;;;;;;;5.70;5.20;;;33.00;31.70;;;;;;5008790;28;20518;-46
2023/06/08 09:59:38;;;;;;;5.20;4.80;;;33.30;31.90;;;;;;5006631;28;20464;-52
2023/06/08 10:02:29;;;;;;;5.20;4.80;;;33.60;30.80;;;;;;5009936;28;20488;-49
2023/06/08 10:05:00;;;;;;;7.10;6.50;;;33.90;30.90;;;;;;4997016;28;20448;-50
2023/06/08 10:07:29;;;;;;;5.47;5.07;;;34.00;30.00;;;;;;5011176;28;20453;-50
2023/06/08 10:10:09;;;;;;;5.70;5.30;;;34.20;29.70;;;;;;5010273;28;20810;-45
2023/06/08 10:12:36;;;;;;;5.67;5.27;;;34.20;30.80;;;;;;5005113;28;20951;-50
2023/06/08 10:15:02;;;;;;;5.80;5.30;;;34.30;31.40;;;;;;5003106;28;20442;-49
2023/06/08 10:17:29;;;;;;;6.10;5.60;;;34.50;29.80;;;;;;5013050;28;20440;-45
2023/06/08 10:19:56;;;;;;;5.77;5.27;;;34.30;29.90;;;;;;5010989;28;20496;-49
2023/06/08 10:22:23;;;;;;;6.07;5.57;;;34.40;30.10;;;;;;5010321;28;20531;-46
2023/06/08 10:24:49;;;;;;;5.83;5.37;;;34.60;29.90;;;;;;5009018;28;20444;-49
2023/06/08 10:27:33;;;;;;;5.70;5.27;;;34.60;30.00;;;;;;5010607;28;20432;-47
2023/06/08 10:30:03;;;;;;;6.13;5.63;;;34.70;29.80;;;;;;5009769;28;20449;-50
2023/06/08 10:32:35;;;;;;;6.23;5.67;;;34.70;29.70;;;;;;5008473;28;20457;-46
2023/06/08 10:35:06;;;;;;;6.50;6.03;;;34.80;30.40;;;;;;5008185;28;20491;-49
2023/06/08 10:37:33;;;;;;;6.40;6.00;;;34.90;29.90;;;;;;5007626;28;20467;-47
2023/06/08 10:40:00;;;;;;;6.10;5.53;;;35.00;29.60;;;;;;5009337;28;20487;-48
2023/06/08 10:42:26;;;;;;;6.83;6.33;;;35.10;30.10;;;;;;5009435;28;20452;-47
2023/06/08 10:44:56;;;;;;;7.00;6.50;;;35.20;29.30;;;;;;5009348;28;20452;-47
2023/06/08 10:47:22;;;;;;;6.13;5.73;;;35.30;29.10;;;;;;5004999;28;20716;-47
2023/06/08 10:49:56;;;;;;;6.47;6.00;;;35.30;29.10;;;;;;5005182;28;20441;-48
2023/06/08 10:52:23;;;;;;;6.43;6.03;;;35.30;28.80;;;;;;5011930;28;20205;-47
2023/06/08 10:55:08;;;;;;;6.20;5.80;;;35.30;28.80;;;;;;5012466;28;20437;-48
2023/06/08 10:57:38;;;;;;;6.27;5.87;;;35.30;28.80;;;;;;5008705;28;20560;-47
2023/06/08 11:00:32;;;;;;;6.93;6.27;;;35.50;28.70;;;;;;5012696;28;21011;-46
2023/06/08 11:03:05;;;;;;;6.23;5.83;;;35.60;28.50;;;;;;5009270;28;20499;-48
2023/06/08 11:05:33;;;;;;;6.70;6.30;;;35.70;28.90;;;;;;5013063;28;20460;-47
2023/06/08 11:08:00;;;;;;;6.67;6.17;;;36.00;28.80;;;;;;5013217;28;20798;-48
2023/06/08 11:10:26;;;;;;;6.80;6.30;;;36.10;28.70;;;;;;5013840;28;20440;-52
2023/06/08 11:12:53;;;;;;;6.20;5.80;;;36.10;28.00;;;;;;5010558;28;20787;-50
2023/06/08 11:15:19;;;;;;;6.87;6.47;;;36.20;28.90;;;;;;5012112;28;20432;-46
2023/06/08 11:17:59;;;;;;;6.70;6.30;;;36.20;29.20;;;;;;5004302;28;20475;-49
2023/06/08 11:20:29;;;;;;;8.13;7.40;;;36.30;28.70;;;;;;5011938;28;21373;-49
2023/06/08 11:22:55;;;;;;;7.40;6.90;;;36.50;27.00;;;;;;5012541;28;20820;-48
2023/06/08 11:25:25;;;;;;;6.67;6.27;;;36.60;26.80;;;;;;5014545;28;20822;-49
2023/06/08 11:27:53;;;;;;;6.90;6.43;;;36.70;27.00;;;;;;5013538;28;20432;-48
2023/06/08 11:30:24;;;;;;;7.80;7.17;;;36.90;27.70;;;;;;5011633;28;20448;-48
2023/06/08 11:32:51;;;;;;;7.10;6.60;;;37.00;27.90;;;;;;5011448;28;20443;-46
2023/06/08 11:35:21;;;;;;;7.20;6.80;;;37.00;28.50;;;;;;5012751;28;21304;-51
2023/06/08 11:37:51;;;;;;;9.07;8.13;;;36.90;28.20;;;;;;5013077;28;20456;-47
2023/06/08 11:40:17;;;;;;;6.60;6.20;;;36.90;27.70;;;;;;5014713;28;20842;-46
2023/06/08 11:42:43;;;;;;;7.80;7.03;;;37.10;28.10;;;;;;5013698;28;20447;-48
2023/06/08 11:45:13;;;;;;;8.73;8.13;;;36.90;26.20;;;;;;5006793;28;20198;-49
2023/06/08 11:47:41;;;;;;;8.30;7.70;;;36.90;26.90;;;;;;5008472;28;20440;-51
2023/06/08 11:50:07;;;;;;;7.83;7.30;;;36.50;27.10;;;;;;5014468;28;20447;-48
2023/06/08 11:52:34;;;;;;;7.87;7.37;;;36.30;27.90;;;;;;5015101;28;20446;-50
2023/06/08 11:55:01;;;;;;;7.83;6.70;;;36.20;27.20;;;;;;5016524;28;20435;-46
2023/06/08 11:57:49;;;;;;;8.30;7.80;;;36.10;27.60;;;;;;5008722;28;20448;-51
2023/06/08 12:00:22;;;;;;;7.70;7.20;;;36.20;28.20;;;;;;5003604;28;20499;-47
2023/06/08 12:02:49;;;;;;;7.27;6.87;;;36.40;28.70;;;;;;5007749;28;20963;-49
2023/06/08 12:05:22;;;;;;;6.43;6.03;;;36.60;28.10;;;;;;5008617;28;20448;-48
2023/06/08 12:08:03;;;;;;;6.57;5.97;;;36.20;26.80;;;;;;5005228;28;20893;-50
2023/06/08 12:10:41;;;;;;;5.73;5.43;;;36.10;25.80;;;;;;5011926;28;20460;-50
2023/06/08 12:13:08;;;;;;;6.50;6.00;;;35.90;25.30;;;;;;5014171;28;20521;-47
2023/06/08 12:15:36;;;;;;;5.97;5.57;;;35.40;25.60;;;;;;5013830;28;20472;-48
2023/06/08 12:18:02;;;;;;;6.57;6.07;;;35.00;26.20;;;;;;5007696;28;20942;-49
2023/06/08 12:20:35;;;;;;;6.43;5.93;;;34.80;26.90;;;;;;5008213;28;20559;-47
2023/06/08 12:23:02;;;;;;;6.40;5.90;;;34.20;27.30;;;;;;5012555;28;21243;-46
2023/06/08 12:25:29;;;;;;;7.10;6.40;;;33.70;28.80;;;;;;5007926;28;20440;-49
2023/06/08 12:27:55;;;;;;;7.90;6.40;;;33.20;28.40;;;;;;5002310;28;20434;-47
2023/06/08 12:30:23;;;;;;;6.50;5.43;;;32.40;27.30;;;;;;4996942;28;20481;-52
2023/06/08 12:32:49;;;;;;;10.60;6.93;;;31.40;30.00;;;;;;5007793;28;20455;-50
2023/06/08 12:35:15;;;;;;;11.27;7.00;;;30.10;33.90;;;;;;5006215;28;20441;-48
2023/06/08 12:37:43;;;;;;;14.60;7.70;;;29.00;40.30;;;;;;5007249;28;20437;-50
2023/06/08 12:40:09;;;;;;;11.23;6.90;;;28.40;42.20;;;;;;5013258;28;20685;-51
2023/06/08 12:42:35;;;;;;;17.17;7.37;;;28.30;40.60;;;;;;5009312;28;20441;-51
2023/06/08 12:45:01;;;;;;;15.37;7.90;;;28.40;43.20;;;;;;5007652;28;20455;-51
2023/06/08 12:47:27;;;;;;;12.00;7.67;;;28.50;41.60;;;;;;5016624;28;20649;-50
2023/06/08 12:49:53;;;;;;;14.40;7.40;;;28.50;45.50;;;;;;5012387;28;20476;-51
2023/06/08 12:52:18;;;;;;;12.80;6.90;;;28.40;46.10;;;;;;5013094;28;20514;-51